createdAt,value
2018-05-11T10:01:45.838Z,38.07
2018-05-11T10:04:15.718Z,41.30
2018-05-11T10:06:45.529Z,35.17
2018-05-11T10:09:15.596Z,33.87
2018-05-11T10:11:45.438Z,33.23
2018-05-11T10:14:15.363Z,32.17
2018-05-11T10:16:45.028Z,33.93
2018-05-11T10:19:14.852Z,33.50
2018-05-11T10:21:44.541Z,31.37
2018-05-11T10:24:14.194Z,29.90
2018-05-11T10:26:44.886Z,28.40
2018-05-11T10:29:14.587Z,35.00
2018-05-11T10:31:44.434Z,32.23
2018-05-11T10:34:14.205Z,32.73
2018-05-11T10:36:43.968Z,32.47
2018-05-11T10:39:13.638Z,36.37
2018-05-11T10:41:44.347Z,33.33
2018-05-11T10:44:14.240Z,36.73
2018-05-11T10:46:43.932Z,33.97
2018-05-11T10:49:13.714Z,36.27
2018-05-11T10:51:43.451Z,33.77
2018-05-11T10:54:13.241Z,31.87
2018-05-11T10:56:43.105Z,34.93
2018-05-11T10:59:12.907Z,33.77
2018-05-11T11:01:42.667Z,33.43
2018-05-11T11:04:12.588Z,30.47
2018-05-11T11:06:42.316Z,32.27
2018-05-11T11:09:12.030Z,30.57
2018-05-11T11:11:41.780Z,30.63
2018-05-11T11:14:11.462Z,31.43
2018-05-11T11:16:41.079Z,30.30
2018-05-11T11:19:11.026Z,31.47
2018-05-11T11:21:40.743Z,30.50
2018-05-11T11:24:10.455Z,28.23
2018-05-11T11:26:40.255Z,30.17
2018-05-11T11:29:09.995Z,30.40
2018-05-11T11:31:39.828Z,27.73
2018-05-11T11:34:09.566Z,26.13
2018-05-11T11:36:39.326Z,26.27
2018-05-11T11:39:09.057Z,28.77
2018-05-11T11:41:38.912Z,29.07
2018-05-11T11:44:08.823Z,31.00
2018-05-11T11:46:38.579Z,28.27
2018-05-11T11:49:08.262Z,30.20
2018-05-11T11:51:38.094Z,27.00
2018-05-11T11:54:07.875Z,26.87
2018-05-11T11:56:37.695Z,26.60
2018-05-11T11:59:08.516Z,24.90
2018-05-11T12:01:38.432Z,26.03
2018-05-11T12:04:08.155Z,28.63
2018-05-11T12:06:37.920Z,26.70
2018-05-11T12:09:07.607Z,25.87
2018-05-11T12:11:37.307Z,26.07
2018-05-11T12:14:07.061Z,27.50
2018-05-11T12:16:36.839Z,26.53
2018-05-11T12:19:06.652Z,26.60
2018-05-11T12:21:36.627Z,25.77
2018-05-11T12:24:06.373Z,25.90
2018-05-11T12:26:36.102Z,28.77
2018-05-11T12:29:05.939Z,27.97
2018-05-11T12:31:35.734Z,26.90
2018-05-11T12:34:05.461Z,29.10
2018-05-11T12:36:35.330Z,28.00
2018-05-11T12:39:05.451Z,28.80
2018-05-11T12:41:35.139Z,27.63
2018-05-11T12:44:04.882Z,27.70
2018-05-11T12:46:35.688Z,28.80
2018-05-11T12:49:05.700Z,29.67
2018-05-11T12:51:35.470Z,29.17
2018-05-11T12:54:05.282Z,28.30
2018-05-11T12:56:35.130Z,28.33
2018-05-11T12:59:05.007Z,27.10
2018-05-11T13:01:34.680Z,27.00
2018-05-11T13:04:04.409Z,25.40
2018-05-11T13:06:34.279Z,28.50
2018-05-11T13:09:05.428Z,27.07
2018-05-11T13:11:35.078Z,26.90
2018-05-11T13:14:04.732Z,26.23
2018-05-11T13:16:34.593Z,28.10
2018-05-11T13:19:04.532Z,27.23
2018-05-11T13:21:34.303Z,29.73
2018-05-11T13:24:04.095Z,28.10
2018-05-11T13:26:34.764Z,30.87
2018-05-11T13:29:04.596Z,30.13
2018-05-11T13:31:34.295Z,30.60
2018-05-11T13:34:04.005Z,31.37
2018-05-11T13:36:33.688Z,31.77
2018-05-11T13:39:03.421Z,29.97
2018-05-11T13:41:33.315Z,29.47
2018-05-11T13:44:03.149Z,30.67
2018-05-11T13:46:32.891Z,32.30
2018-05-11T13:49:02.667Z,34.17
2018-05-11T13:51:32.372Z,33.50
2018-05-11T13:54:02.314Z,34.10
2018-05-11T13:56:32.167Z,32.10
2018-05-11T13:59:01.920Z,33.43
2018-05-11T14:01:31.558Z,33.30
2018-05-11T14:04:01.399Z,30.27
2018-05-11T14:06:31.050Z,31.03
2018-05-11T14:09:00.794Z,29.23
2018-05-11T14:11:30.414Z,29.60
2018-05-11T14:14:00.133Z,26.33
2018-05-11T14:16:29.916Z,30.03
2018-05-11T14:18:59.744Z,29.53
2018-05-11T14:21:29.564Z,31.70
2018-05-11T14:23:59.382Z,28.37
2018-05-11T14:26:29.102Z,28.77
2018-05-11T14:28:58.828Z,29.43
2018-05-11T14:31:29.658Z,31.57
2018-05-11T14:33:59.527Z,29.83
2018-05-11T14:36:29.147Z,29.47
2018-05-11T14:38:58.902Z,31.37
2018-05-11T14:41:28.617Z,32.37
2018-05-11T14:43:59.059Z,33.87
2018-05-11T14:46:28.836Z,31.20
2018-05-11T14:48:58.600Z,33.00
2018-05-11T14:51:28.252Z,31.27
2018-05-11T14:53:58.197Z,33.27
2018-05-11T14:56:28.058Z,33.57
2018-05-11T14:58:58.838Z,31.67
2018-05-11T15:01:28.689Z,33.07
2018-05-11T15:03:58.385Z,32.17
2018-05-11T15:06:28.390Z,31.73
2018-05-11T15:08:58.144Z,32.30
2018-05-11T15:11:27.931Z,33.10
2018-05-11T15:13:57.863Z,34.77
2018-05-11T15:16:27.621Z,35.60
2018-05-11T15:18:57.301Z,36.57
2018-05-11T15:21:27.115Z,30.20
2018-05-11T15:23:56.903Z,32.33
2018-05-11T15:26:26.618Z,33.17
2018-05-11T15:28:56.374Z,34.20
2018-05-11T15:31:26.057Z,31.93
2018-05-11T15:33:55.757Z,31.47
2018-05-11T15:36:25.366Z,31.57
2018-05-11T15:38:55.149Z,30.73
2018-05-11T15:44:15.183Z,29.27
2018-05-11T15:46:44.896Z,32.87
2018-05-11T15:49:14.604Z,32.67
2018-05-11T15:51:44.393Z,34.40
2018-05-11T15:54:14.182Z,31.50
2018-05-11T15:56:43.763Z,31.30
2018-05-11T15:59:13.474Z,32.13
2018-05-11T16:01:43.328Z,36.00
2018-05-11T16:04:12.919Z,32.70
2018-05-11T16:06:42.717Z,36.43
2018-05-11T16:09:12.468Z,35.40
2018-05-11T16:11:42.178Z,31.83
2018-05-11T16:14:11.940Z,33.80
2018-05-11T16:16:41.815Z,30.37
2018-05-11T16:19:11.524Z,35.13
2018-05-11T16:21:41.205Z,32.27
2018-05-11T16:24:10.943Z,33.33
2018-05-11T16:26:40.656Z,37.27
2018-05-11T16:29:11.377Z,35.67
2018-05-11T16:31:41.287Z,28.87
2018-05-11T16:34:10.898Z,32.60
2018-05-11T16:36:40.617Z,32.23
2018-05-11T16:39:10.298Z,34.87
2018-05-11T16:41:40.040Z,34.40
2018-05-11T16:44:09.908Z,32.87
2018-05-11T16:46:39.770Z,29.17
2018-05-11T16:49:09.635Z,29.63
2018-05-11T16:51:39.297Z,32.63
2018-05-11T16:54:09.115Z,33.40
2018-05-11T16:56:38.896Z,31.60
2018-05-11T16:59:08.514Z,28.77
2018-05-11T17:01:38.252Z,28.13
2018-05-11T17:04:07.958Z,24.90
2018-05-11T17:06:37.769Z,25.07
2018-05-11T17:09:07.652Z,24.53
2018-05-11T17:11:37.473Z,25.93
2018-05-11T17:14:07.211Z,25.97
2018-05-11T17:16:36.942Z,25.53
2018-05-11T17:19:06.752Z,26.00
2018-05-11T17:21:36.425Z,28.33
2018-05-11T17:24:06.255Z,25.73
2018-05-11T17:26:35.977Z,26.20
2018-05-11T17:29:05.825Z,25.20
2018-05-11T17:31:35.535Z,26.47
2018-05-11T17:34:05.340Z,25.03
2018-05-11T17:36:35.098Z,25.43
2018-05-11T17:39:05.092Z,28.73
2018-05-11T17:41:34.792Z,25.43
2018-05-11T17:44:04.671Z,27.47
2018-05-11T17:46:34.404Z,27.87
2018-05-11T17:49:05.238Z,27.07
2018-05-11T17:51:34.944Z,27.47
2018-05-11T17:54:04.719Z,29.67
2018-05-11T17:56:34.454Z,30.37
2018-05-11T17:59:04.319Z,35.47
2018-05-11T18:01:33.937Z,35.83
2018-05-11T18:04:03.794Z,35.17
2018-05-11T18:06:33.471Z,30.83
2018-05-11T18:09:03.459Z,33.13
2018-05-11T18:11:33.243Z,31.13
2018-05-11T18:14:02.840Z,32.83
2018-05-11T18:16:32.625Z,33.37
2018-05-11T18:19:02.522Z,33.07
2018-05-11T18:21:32.085Z,36.70
2018-05-11T18:24:01.667Z,40.73
2018-05-11T18:26:31.754Z,39.83
2018-05-11T18:29:01.435Z,45.23
2018-05-11T18:31:31.208Z,41.83
2018-05-11T18:34:01.000Z,45.33
2018-05-11T18:36:30.592Z,43.30
2018-05-11T18:39:00.450Z,45.67
2018-05-11T18:41:30.055Z,44.60
2018-05-11T18:43:59.964Z,44.47
2018-05-11T18:46:29.912Z,47.47
2018-05-11T18:48:59.546Z,47.60
2018-05-11T18:51:29.325Z,50.50
2018-05-11T18:53:59.401Z,49.23
2018-05-11T18:56:28.715Z,57.13
2018-05-11T18:58:58.707Z,69.77
2018-05-11T19:01:28.321Z,102.20
2018-05-11T19:03:57.931Z,135.90
2018-05-11T19:06:27.864Z,124.87
2018-05-11T19:08:57.644Z,129.77
2018-05-11T19:11:27.332Z,89.47
2018-05-11T19:13:57.109Z,59.60
2018-05-11T19:16:26.671Z,51.43
2018-05-11T19:18:56.424Z,55.33
2018-05-11T19:21:26.241Z,62.07
2018-05-11T19:23:56.079Z,109.67
2018-05-11T19:26:25.799Z,102.73
2018-05-11T19:28:56.529Z,66.37
2018-05-11T19:31:26.147Z,59.40
2018-05-11T19:33:56.080Z,59.63
2018-05-11T19:36:26.880Z,56.33
2018-05-11T19:38:56.687Z,62.17
2018-05-11T19:41:26.376Z,59.80
2018-05-11T19:43:56.211Z,54.70
2018-05-11T19:46:26.992Z,51.67
2018-05-11T19:48:57.785Z,49.73
2018-05-11T19:51:27.282Z,55.50
2018-05-11T19:53:56.965Z,58.60
2018-05-11T19:56:26.701Z,56.37
2018-05-11T19:58:56.406Z,61.23
2018-05-11T20:01:26.058Z,76.57
2018-05-11T20:03:55.997Z,69.03
2018-05-11T20:06:25.842Z,60.27
2018-05-11T20:08:55.491Z,66.80
2018-05-11T20:11:25.189Z,67.33
2018-05-11T20:13:54.797Z,71.03
2018-05-11T20:16:24.455Z,70.63
2018-05-11T20:18:54.146Z,61.47
2018-05-11T20:21:23.955Z,59.53
2018-05-11T20:23:53.995Z,57.83
2018-05-11T20:26:23.748Z,63.50
2018-05-11T20:28:53.419Z,64.23
2018-05-11T20:31:23.668Z,61.00
2018-05-11T20:33:53.482Z,65.00
2018-05-11T20:36:23.220Z,67.03
2018-05-11T20:38:52.950Z,71.13
2018-05-11T20:41:22.640Z,66.27
2018-05-11T20:43:52.384Z,69.90
2018-05-11T20:46:22.233Z,66.80
2018-05-11T20:48:52.086Z,66.70
2018-05-11T20:51:21.895Z,69.57
2018-05-11T20:53:51.594Z,64.70
2018-05-11T20:56:21.504Z,65.40
2018-05-11T20:58:52.319Z,56.47
2018-05-11T21:01:21.982Z,59.10
2018-05-11T21:03:51.786Z,52.57
2018-05-11T21:06:21.572Z,50.23
2018-05-11T21:08:51.401Z,49.60
2018-05-11T21:11:20.991Z,54.63
2018-05-11T21:13:50.811Z,58.87
2018-05-11T21:16:20.441Z,61.27
2018-05-11T21:18:50.175Z,56.53
2018-05-11T21:21:19.936Z,55.00
2018-05-11T21:23:49.744Z,57.17
2018-05-11T21:26:19.307Z,53.43
2018-05-11T21:28:48.908Z,55.27
2018-05-11T21:31:18.720Z,56.70
2018-05-11T21:33:48.439Z,60.60
2018-05-11T21:36:18.311Z,62.10
2018-05-11T21:38:48.102Z,68.80
2018-05-11T21:41:17.873Z,66.77
2018-05-11T21:43:47.667Z,63.20
2018-05-11T21:46:17.403Z,62.63
2018-05-11T21:48:47.074Z,65.20
2018-05-11T21:51:16.771Z,68.20
2018-05-11T21:53:46.567Z,70.70
2018-05-11T21:56:16.264Z,67.33
2018-05-11T21:58:46.028Z,65.73
2018-05-11T22:01:15.740Z,71.10
2018-05-11T22:03:45.357Z,67.97
2018-05-11T22:06:15.161Z,75.90
2018-05-11T22:08:44.831Z,65.00
2018-05-11T22:11:14.354Z,54.20
2018-05-11T22:13:44.101Z,46.03
2018-05-11T22:16:13.788Z,55.23
2018-05-11T22:18:43.495Z,74.30
2018-05-11T22:21:13.274Z,82.17
2018-05-11T22:23:42.996Z,69.37
2018-05-11T22:26:12.727Z,62.17
2018-05-11T22:28:42.488Z,56.07
2018-05-11T22:31:12.047Z,47.30
2018-05-11T22:33:41.850Z,65.80
2018-05-11T22:36:11.659Z,78.63
2018-05-11T22:38:41.490Z,76.30
2018-05-11T22:41:11.091Z,69.17
2018-05-11T22:43:40.871Z,65.87
2018-05-11T22:46:10.485Z,75.87
2018-05-11T22:48:40.151Z,77.57
2018-05-11T22:51:09.832Z,72.87
2018-05-11T22:53:39.603Z,95.30
2018-05-11T22:56:09.185Z,103.67
2018-05-11T22:58:38.908Z,102.10
2018-05-11T23:01:08.628Z,102.33
2018-05-11T23:03:38.416Z,96.90
2018-05-11T23:06:08.110Z,98.67
2018-05-11T23:08:37.830Z,79.53
2018-05-11T23:11:07.471Z,69.47
2018-05-11T23:13:37.163Z,91.87
2018-05-11T23:16:06.884Z,97.27
2018-05-11T23:18:36.675Z,114.37
2018-05-11T23:21:06.525Z,102.97
2018-05-11T23:23:36.114Z,98.07
2018-05-11T23:26:05.767Z,87.73
2018-05-11T23:28:35.587Z,87.63
2018-05-11T23:31:05.219Z,87.70
2018-05-11T23:33:34.911Z,71.73
2018-05-11T23:36:04.482Z,67.27
2018-05-11T23:38:34.302Z,64.00
2018-05-11T23:41:04.104Z,78.00
2018-05-11T23:43:33.833Z,88.77
2018-05-11T23:46:03.572Z,82.23
2018-05-11T23:48:33.262Z,74.57
2018-05-11T23:51:03.022Z,70.33
2018-05-11T23:53:32.665Z,74.97
2018-05-11T23:56:02.368Z,77.67
2018-05-11T23:58:31.964Z,89.63
